Terminal Aerodrome Forecast
Issued by NWS

Home | Current Version | Previous Version | Text Only | Print | Product List | Glossary On
Versions: 1 2 3 4 5 6 7 8 9 10 11 12
000
FTUS45 KREV 072341
TAFTVL
TAF
KTVL 072341Z 0800/0824 17006KT 3SM -SN SCT010 BKN025 OVC050
      TEMPO 0801/0805 1SM -SN OVC010
     FM081200 19010KT 3SM -SNRA SCT010 OVC020
     FM081400 19015G22KT 5SM -RASN BKN020 OVC040
     FM081600 19014G22KT 6SM -RA SCT025 OVC040=

USA.gov is the U.S. government's official web portal to all federal, state and local government web resources and services.